LIVR 192155Z 32002KT CAVOK 09/08 Q1032 RMK SKC MON LIB VIS MIN 9999 LIVR 192055Z 31003KT CAVOK 09/08 Q1032 RMK SKC MON LIB VIS MIN 9999 LIVR 191955Z VRB01KT CAVOK 09/09 Q1032 RMK SCT SCT170 MON LIB VIS MIN 9999 LIVR 191855Z 11005KT CAVOK 10/09 Q1032 RMK SCT SCT170 MON LIB VIS MIN 9999 LIVR 191755Z 12009KT 9999 FEW020 11/09 Q1032 RMK SCT MON CLD SCT VIS MIN 9999 LIVR 191655Z 13012KT 9999 SCT020 13/09 Q1032 RMK SCT MON CLD SCT VIS MIN 9999 LIVR 191555Z 14012KT 9999 SCT020 13/09 Q1032 RMK SCT MON CLD SCT VIS MIN 9999 LIVR 191455Z 13013KT 9999 SCT020 13/08 Q1032 RMK SCT MON CLD SCT VIS MIN 9999 LIVR 191355Z 13014KT 9999 BKN020 14/08 Q1032 RMK BKN MON CIME INC VIS MIN 9999 LIVR 191255Z 14010KT 9999 SCT025 13/07 Q1032 RMK SCT MON CIME INC VIS MIN 9999 LIVR 191155Z 14009KT 9999 SCT025 12/08 Q1032 RMK SCT MON CIME INC VIS MIN 9999 LIVR 191055Z 13006KT 9999 BKN020 13/08 Q1032 RMK BKN MON GEN INC VIS MIN 9999 LIVR 190955Z 29004KT 9999 SCT020 12/09 Q1031 RMK SCT MON GEN INC VIS MIN 9999 LIVR 190855Z 29004KT 9999 SCT030 10/07 Q1031 RMK BKN SCT060 MON GEN INC VIS MIN 9999 LIVR 190755Z 29005KT 9999 SCT020 10/07 Q1031 RMK BKN BKN060 MON GEN INC VIS MIN 9999 LIVR 190655Z 32005KT 9999 SCT020 09/07 Q1031 RMK BKN BKN060 MON GEN INC VIS MIN 9999 LIVR 190555Z 32003KT 0800 FG VV/// 08/06 Q1031 RMK MON INVIS VIS MIN 0800 LIVR 182055Z 15008KT 0100 FG VV/// 08/07 Q1029 RMK MON INVIS VIS MIN 0100 LIVR 181955Z 17008KT 0100 FG VV/// 08/07 Q1029 RMK MON INVIS VIS MIN 0100 LIVR 181855Z 15010KT 0100 FG VV/// 09/07 Q1029 RMK MON INVIS VIS MIN 0100 LIVR 181755Z 15011KT 0100 FG VV/// 09/07 Q1029 RMK MON INVIS VIS MIN 0100 LIVR 181655Z 14013KT 9999 BKN020 10/09 Q1029 RMK BKN MON GEN INC VIS MIN 9999 LIVR 181555Z 15014KT 9999 BKN020 11/09 Q1029 RMK BKN MON GEN INC VIS MIN 9999 LIVR 181455Z 13014KT 9999 BKN020 12/09 Q1029 RMK BKN MON GEN INC VIS MIN 9999 LIVR 181355Z 13015KT 9999 BKN020 12/09 Q1029 RMK BKN MON GEN INC VIS MIN 9999

METAR Messwerte "ROLLE PASS" LIVR

Zurück zur Übersicht

Ortsname
Ländercode / m ü. NN
Zeit Temperatur Taupunkt Rel.
Luftfeuchte
Luftdruck:
Altimeter
NN
Station
Wind in Beaufort
(Knoten)
Sichtweite
(Meter)
Wolken
(Meter über Grund)
Wettererscheinung
ROLLE PASS
IT 1997
Do 19.05. 23:559893 %1032
1038
811
NW 1 (2)>= 10000Nicht signifikant 
ROLLE PASS
IT 1997
Do 19.05. 22:559893 %1032
1038
811
NW 2 (3)>= 10000Nicht signifikant 
ROLLE PASS
IT 1997
Do 19.05. 21:5599100 %1032
1038
811
Uml 1 (1)>= 10000Nicht signifikant 
ROLLE PASS
IT 1997
Do 19.05. 20:5510993 %1032
1037
811
OSO 2 (5)>= 10000Nicht signifikant 
ROLLE PASS
IT 1997
Do 19.05. 19:5511987 %1032
1036
811
OSO 3 (9)>= 10000Leicht bewölkt (610) 
ROLLE PASS
IT 1997
Do 19.05. 18:5513977 %1032
1034
811
SO 4 (12)>= 10000Wolkig (610) 
ROLLE PASS
IT 1997
Do 19.05. 17:5513977 %1032
1034
811
SO 4 (12)>= 10000Wolkig (610) 
ROLLE PASS
IT 1997
Do 19.05. 16:5513872 %1032
1034
811
SO 4 (13)>= 10000Wolkig (610) 
ROLLE PASS
IT 1997
Do 19.05. 15:5514867 %1032
1033
811
SO 4 (14)>= 10000Stark bewölkt (610) 
ROLLE PASS
IT 1997
Do 19.05. 14:5513767 %1032
1034
811
SO 3 (10)>= 10000Wolkig (760) 
ROLLE PASS
IT 1997
Do 19.05. 13:5512876 %1032
1035
811
SO 3 (9)>= 10000Wolkig (760) 
ROLLE PASS
IT 1997
Do 19.05. 12:5513872 %1032
1034
811
SO 2 (6)>= 10000Stark bewölkt (610) 
ROLLE PASS
IT 1997
Do 19.05. 11:5512982 %1031
1034
810
WNW 2 (4)>= 10000Wolkig (610) 
ROLLE PASS
IT 1997
Do 19.05. 10:5510782 %1031
1036
810
WNW 2 (4)>= 10000Wolkig (1800)
Wolkig (910)
 
ROLLE PASS
IT 1997
Do 19.05. 09:5510782 %1031
1036
810
WNW 2 (5)>= 10000Stark bewölkt (1800)
Wolkig (610)
 
ROLLE PASS
IT 1997
Do 19.05. 08:559787 %1031
1037
810
NW 2 (5)>= 10000Stark bewölkt (1800)
Wolkig (610)
 
ROLLE PASS
IT 1997
Do 19.05. 07:558687 %1031
1038
810
NW 2 (3)800 Nebel
ROLLE PASS
IT 1997
Mi 18.05. 22:558793 %1029
1036
808
SSO 3 (8)100 Nebel
ROLLE PASS
IT 1997
Mi 18.05. 21:558793 %1029
1036
808
S 3 (8)100 Nebel
ROLLE PASS
IT 1997
Mi 18.05. 20:559787 %1029
1035
808
SSO 3 (10)100 Nebel
ROLLE PASS
IT 1997
Mi 18.05. 19:559787 %1029
1035
808
SSO 4 (11)100 Nebel
ROLLE PASS
IT 1997
Mi 18.05. 18:5510993 %1029
1034
808
SO 4 (13)>= 10000Stark bewölkt (610) 
ROLLE PASS
IT 1997
Mi 18.05. 17:5511987 %1029
1033
808
SSO 4 (14)>= 10000Stark bewölkt (610) 
ROLLE PASS
IT 1997
Mi 18.05. 16:5512982 %1029
1032
808
SO 4 (14)>= 10000Stark bewölkt (610) 
ROLLE PASS
IT 1997
Mi 18.05. 15:5512982 %1029
1032
808
SO 4 (15)>= 10000Stark bewölkt (610) 

Altimeter: Einstellung am Altimeter (Höhenmesser), die Höhe 0 muss auf diesen Luftdruckwert zeigen, damit das Gerät die Stationshöhe richtig anzeigt.

NN: Luftdruck reduziert auf "Normal Null", auf Meereshöhe, dieser von der Temperatur abhängige Wert wird bisweilen unkorrekt einfach als "Luftdruck" bezeichnet. Eigentlich nur eine fiktive Größe, die es erlaubt, Stationen auf unterschiedlichen Höhen miteinander zu vergleichen.

Station: Realer Luftdruck an der Station.